Lone Jack, MO (64070)

3:36 AM CDT on September 27, 2016 (GMT -0500)
| | Change Station
Active Advisory: Flood Warning

Elev -9999 ft 0.00 °N, 0.00 °E | Updated

Clear
Clear
53 °F
Feels Like 53 °F
N
7
Wind Variable Wind from WSW
Gusts 12 mph

Today
High -- | Low -- °F
--% Chance of Precip.
Yesterday
High -- | Low -- °F
Precip. -- in
Pressure 30.08 in
Visibility 10.0 miles
Clouds Clear
Dew Point 44 °F
Humidity 72%
Rainfall --
Snow Depth Not available.
7:09 AM 7:04 PM
Waning Crescent, 13% visible
METAR KLXT 270753Z AUTO 23006KT 10SM CLR 13/08 A3009 RMK AO2 SLP185 T01330083
Pressure 30.08 in
Visibility 10.0 miles
Clouds Clear
Dew Point 44 °F
Humidity 72%
Rainfall --
Snow Depth Not available.
7:09 AM 7:04 PM
Waning Crescent, 13% visible
METAR KLXT 270753Z AUTO 23006KT 10SM CLR 13/08 A3009 RMK AO2 SLP185 T01330083

10-Day Weather Forecast

Almanac

Astronomy

Sep. 27, 2016 Rise Set
Actual Time
Civil Twilight
Nautical Twilight
Astronomical Twilight
Moon
Length of Visible Light
Length of Day
Tomorrow will be .
, % of the Moon is Illuminated

Today's Extremes

State Highs State Lows

Community

WunderPhotos

Upload Photos

1,942,040 photos uploaded!

WunderBlog® & News

Nearby

Air Quality

  Air Quality AQ Index Pollutant
Not available.

Snow Depth

Station Depth Elevation

Earthquake Activity

City Distance Mag. Time & Date
Minimum magnitude displayed is 2.5.

Coastal Water Temperatures

Place Temperature

Stations

Nearby Weather Stations

Station Location Temp. Windchill Dew Point Humidity Wind Precip. Elev Updated Type
                   

Watches & Warnings

Flood Warning
Issued: 9:29 PM CDT Sep. 26, 2016 – National Weather Service

The Flood Warning continues for
the Missouri River at Napoleon.
* Until late Tuesday night.
* At 9:00 PM Monday the stage was 17.4 feet.
* Flood stage is 17.0 feet.
* Forecast... the river will continue to fall to below flood stage by
early Tuesday morning.
* At 17.0 feet... low-lying areas unprotected by levees begin to
flood.

                       Latest
location fs stage day/time forecast

Missouri River
Napoleon 17 17.4 Mon 09 PM 17.0 early Tuesday morning


lat... Lon 3916 9415 3922 9417 3925 9386 3918 9384 3911 9405